createdAt,value
2023-04-18T00:00:59.554Z,16.45
2023-04-18T00:06:01.059Z,16.95
2023-04-18T00:11:02.591Z,17.98
2023-04-18T00:16:04.272Z,16.85
2023-04-18T00:21:06.788Z,14.23
2023-04-18T00:26:08.614Z,16.77
2023-04-18T00:31:10.235Z,15.38
2023-04-18T00:36:11.825Z,19.10
2023-04-18T00:41:13.341Z,18.77
2023-04-18T00:46:14.967Z,21.25
2023-04-18T00:51:16.688Z,18.52
2023-04-18T00:56:18.232Z,15.68
2023-04-18T01:01:19.749Z,13.63
2023-04-18T01:06:21.527Z,15.45
2023-04-18T01:11:23.161Z,18.08
2023-04-18T01:16:25.106Z,16.30
2023-04-18T01:21:27.024Z,19.95
2023-04-18T01:26:29.233Z,21.25
2023-04-18T01:31:34.575Z,16.38
2023-04-18T01:36:38.361Z,18.58
2023-04-18T01:41:42.049Z,21.77
2023-04-18T01:46:44.650Z,16.58
2023-04-18T01:51:46.392Z,16.02
2023-04-18T01:56:49.018Z,20.33
2023-04-18T02:01:51.677Z,17.13
2023-04-18T02:06:53.705Z,22.13
2023-04-18T02:11:55.537Z,17.48
2023-04-18T02:17:01.284Z,23.50
2023-04-18T02:22:03.134Z,25.27
2023-04-18T02:27:06.302Z,25.98
2023-04-18T02:32:08.243Z,23.92
2023-04-18T02:37:10.140Z,24.52
2023-04-18T02:42:14.326Z,23.02
2023-04-18T02:47:16.033Z,22.65
2023-04-18T02:52:20.548Z,22.08
2023-04-18T02:57:22.448Z,24.08
2023-04-18T03:02:35.839Z,26.05
2023-04-18T03:07:51.198Z,23.40
2023-04-18T03:12:53.836Z,25.13
2023-04-18T03:17:56.975Z,29.23
2023-04-18T03:23:00.237Z,30.42
2023-04-18T03:28:04.968Z,30.65
2023-04-18T03:33:08.584Z,26.80
2023-04-18T03:38:10.251Z,25.38
2023-04-18T03:43:14.624Z,22.92
2023-04-18T03:48:16.654Z,28.60
2023-04-18T03:53:20.337Z,33.22
2023-04-18T04:03:26.024Z,31.77
2023-04-18T04:08:28.364Z,29.92
2023-04-18T04:13:30.362Z,26.85
2023-04-18T04:18:33.943Z,32.40
2023-04-18T04:23:38.286Z,31.63
2023-04-18T04:28:40.516Z,31.50
2023-04-18T04:33:42.946Z,29.90
2023-04-18T04:38:50.826Z,30.25
2023-04-18T04:43:54.726Z,29.52
2023-04-18T04:49:01.540Z,32.53
2023-04-18T04:54:03.922Z,29.25
2023-04-18T04:59:05.691Z,30.13
2023-04-18T05:04:11.499Z,29.85
2023-04-18T05:09:13.123Z,25.48
2023-04-18T05:14:15.126Z,25.45
2023-04-18T05:19:16.920Z,23.80
2023-04-18T05:24:18.670Z,19.95
2023-04-18T05:29:20.303Z,15.43
2023-04-18T05:34:21.830Z,16.52
2023-04-18T05:39:23.339Z,11.85
2023-04-18T05:44:24.924Z,14.57
2023-04-18T05:49:26.463Z,13.18
2023-04-18T05:54:27.993Z,13.52
2023-04-18T05:59:29.519Z,12.55
2023-04-18T06:04:31.247Z,15.32
2023-04-18T06:09:32.917Z,12.30
2023-04-18T06:14:34.441Z,13.00
2023-04-18T06:19:35.962Z,11.27
2023-04-18T06:24:37.457Z,14.20
2023-04-18T06:29:39.042Z,12.77
2023-04-18T06:34:40.649Z,11.45
2023-04-18T06:39:42.175Z,9.68
2023-04-18T06:44:43.743Z,9.52
2023-04-18T06:49:45.285Z,9.20
2023-04-18T06:54:46.765Z,11.68
2023-04-18T06:59:48.281Z,8.15
2023-04-18T07:04:49.798Z,8.90
2023-04-18T07:09:51.346Z,15.48
2023-04-18T07:14:53.979Z,8.50
2023-04-18T07:19:55.504Z,9.02
2023-04-18T07:24:57.015Z,7.75
2023-04-18T07:29:58.569Z,7.78
2023-04-18T07:35:00.154Z,7.82
2023-04-18T07:40:01.781Z,8.50
2023-04-18T07:45:03.646Z,7.53
2023-04-18T07:50:05.588Z,7.32
2023-04-18T07:55:07.556Z,8.27
2023-04-18T08:00:09.789Z,7.85
2023-04-18T08:05:19.496Z,9.63
2023-04-18T08:10:23.256Z,9.18
2023-04-18T08:15:25.410Z,7.20
2023-04-18T08:20:27.203Z,7.10
2023-04-18T08:25:28.978Z,10.40
2023-04-18T08:30:30.562Z,7.97
2023-04-18T08:35:32.130Z,8.23
2023-04-18T08:40:33.873Z,6.95
2023-04-18T08:45:35.535Z,8.13
2023-04-18T08:50:37.070Z,7.82
2023-04-18T08:55:38.619Z,9.85
2023-04-18T09:00:40.152Z,9.18
2023-04-18T09:05:41.772Z,7.95
2023-04-18T09:10:44.810Z,15.23
2023-04-18T09:15:54.930Z,8.55
2023-04-18T09:20:56.541Z,11.68
2023-04-18T09:25:58.124Z,8.73
2023-04-18T09:31:11.228Z,9.13
2023-04-18T09:36:24.890Z,7.03
2023-04-18T09:41:26.467Z,7.45
2023-04-18T09:46:28.418Z,8.95
2023-04-18T09:51:31.644Z,6.03
2023-04-18T09:56:36.465Z,7.07
2023-04-18T10:01:39.018Z,6.85
2023-04-18T10:06:41.148Z,10.13
2023-04-18T10:11:43.733Z,7.32
2023-04-18T10:16:45.413Z,7.32
2023-04-18T10:22:01.061Z,7.30
2023-04-18T10:27:02.662Z,6.43
2023-04-18T10:32:06.250Z,7.22
2023-04-18T10:37:07.848Z,6.38
2023-04-18T10:42:09.413Z,7.47
2023-04-18T10:47:29.000Z,10.98
2023-04-18T10:52:31.148Z,8.95
2023-04-18T10:57:40.366Z,9.48
2023-04-18T11:02:49.258Z,6.30
2023-04-18T11:07:51.208Z,6.68
2023-04-18T11:12:55.337Z,8.10
2023-04-18T11:18:00.383Z,9.98
2023-04-18T11:23:01.976Z,6.00
2023-04-18T11:28:04.504Z,6.95
2023-04-18T11:33:07.984Z,7.38
2023-04-18T11:38:12.730Z,6.80
2023-04-18T11:48:22.648Z,6.88
2023-04-18T11:53:38.023Z,7.38
2023-04-18T11:58:39.786Z,6.78
2023-04-18T12:03:41.599Z,6.90
2023-04-18T12:08:43.310Z,6.75
2023-04-18T12:13:45.998Z,6.45
2023-04-18T12:18:47.553Z,8.77
2023-04-18T12:23:49.068Z,7.05
2023-04-18T12:28:51.343Z,6.10
2023-04-18T12:33:52.910Z,5.60
2023-04-18T12:38:54.477Z,6.75
2023-04-18T12:43:56.043Z,5.28
2023-04-18T12:48:57.564Z,7.55
2023-04-18T12:53:59.185Z,5.90
2023-04-18T12:59:00.719Z,4.90
2023-04-18T13:04:11.814Z,5.40
2023-04-18T13:09:14.962Z,7.13
2023-04-18T13:14:16.756Z,5.60
2023-04-18T13:19:18.269Z,6.15
2023-04-18T13:24:19.772Z,5.35
2023-04-18T13:29:21.292Z,5.85
2023-04-18T13:34:22.806Z,7.22
2023-04-18T13:39:24.390Z,7.35
2023-04-18T13:44:25.889Z,7.47
2023-04-18T13:49:27.894Z,7.47
2023-04-18T13:54:31.091Z,6.88
2023-04-18T13:59:33.425Z,8.27
2023-04-18T14:04:35.785Z,8.68
2023-04-18T14:09:37.418Z,8.38
2023-04-18T14:14:39.063Z,8.30
2023-04-18T14:19:40.578Z,10.02
2023-04-18T14:24:42.210Z,7.15
2023-04-18T14:29:43.718Z,7.93
2023-04-18T14:34:45.275Z,7.22
2023-04-18T14:39:46.788Z,7.13
2023-04-18T14:44:48.299Z,7.72
2023-04-18T14:49:49.801Z,10.45
2023-04-18T14:54:51.369Z,8.75
2023-04-18T14:59:53.007Z,8.15
2023-04-18T15:04:54.590Z,9.05
2023-04-18T15:09:56.169Z,9.07
2023-04-18T15:14:59.676Z,9.00
2023-04-18T15:20:01.227Z,10.95
2023-04-18T15:25:03.627Z,9.65
2023-04-18T15:30:05.882Z,7.00
2023-04-18T15:35:08.871Z,6.60
2023-04-18T15:40:10.817Z,7.63
2023-04-18T15:45:12.513Z,6.95
2023-04-18T15:50:14.136Z,9.70
2023-04-18T15:55:15.669Z,7.00
2023-04-18T16:00:17.715Z,8.10
2023-04-18T16:05:19.264Z,6.88
2023-04-18T16:10:20.826Z,6.68
2023-04-18T16:15:22.418Z,5.07
2023-04-18T16:20:24.174Z,7.72
2023-04-18T16:25:25.982Z,6.38
2023-04-18T16:30:27.521Z,5.85
2023-04-18T16:35:29.251Z,6.25
2023-04-18T16:40:30.787Z,6.00
2023-04-18T16:45:32.900Z,5.68
2023-04-18T16:50:34.405Z,6.57
2023-04-18T16:55:35.919Z,6.30
2023-04-18T17:00:38.495Z,6.03
2023-04-18T17:05:40.351Z,6.60
2023-04-18T17:10:41.918Z,6.60
2023-04-18T17:15:43.430Z,5.55
2023-04-18T17:20:45.033Z,6.35
2023-04-18T17:25:46.558Z,7.20
2023-04-18T17:30:48.068Z,5.25
2023-04-18T17:35:49.633Z,4.72
2023-04-18T17:41:09.000Z,6.35
2023-04-18T17:46:10.684Z,6.35
2023-04-18T17:51:12.372Z,6.82
2023-04-18T17:56:14.059Z,6.63
2023-04-18T18:01:17.468Z,5.72
2023-04-18T18:06:19.039Z,6.28
2023-04-18T18:11:20.538Z,7.97
2023-04-18T18:16:22.242Z,5.72
2023-04-18T18:21:23.823Z,7.88
2023-04-18T18:26:25.382Z,7.55
2023-04-18T18:31:26.951Z,8.60
2023-04-18T18:36:28.637Z,7.40
2023-04-18T18:41:30.231Z,6.22
2023-04-18T18:46:31.795Z,8.07
2023-04-18T18:51:33.340Z,6.85
2023-04-18T18:56:34.924Z,7.63
2023-04-18T19:01:36.608Z,11.20
2023-04-18T19:06:38.383Z,10.35
2023-04-18T19:11:39.929Z,7.95
2023-04-18T19:16:41.585Z,9.05
2023-04-18T19:21:43.610Z,7.18
2023-04-18T19:26:45.116Z,7.90
2023-04-18T19:31:46.754Z,10.02
2023-04-18T19:36:48.504Z,7.15
2023-04-18T19:41:50.084Z,7.35
2023-04-18T19:46:51.702Z,7.70
2023-04-18T19:51:53.368Z,10.05
2023-04-18T19:56:55.654Z,6.85
2023-04-18T20:01:59.489Z,8.65
2023-04-18T20:07:03.326Z,10.23
2023-04-18T20:12:05.074Z,10.20
2023-04-18T20:17:06.838Z,10.40
2023-04-18T20:22:08.528Z,9.80
2023-04-18T20:27:10.658Z,8.48
2023-04-18T20:32:12.514Z,7.20
2023-04-18T20:37:14.107Z,7.97
2023-04-18T20:42:15.798Z,6.90
2023-04-18T20:47:17.426Z,7.97
2023-04-18T20:52:19.005Z,7.75
2023-04-18T20:57:20.525Z,7.47
2023-04-18T21:02:22.149Z,8.23
2023-04-18T21:07:23.803Z,7.93
2023-04-18T21:12:25.413Z,9.55
2023-04-18T21:17:27.010Z,6.93
2023-04-18T21:22:28.538Z,7.15
2023-04-18T21:27:30.331Z,8.80
2023-04-18T21:32:31.911Z,8.68
2023-04-18T21:37:33.592Z,11.15
2023-04-18T21:42:35.809Z,8.57
2023-04-18T21:47:37.380Z,7.07
2023-04-18T21:52:38.871Z,7.80
2023-04-18T21:57:40.501Z,7.18
2023-04-18T22:02:42.141Z,9.75
2023-04-18T22:07:56.943Z,7.85
2023-04-18T22:12:59.448Z,8.88
2023-04-18T22:18:01.014Z,7.28
2023-04-18T22:23:03.001Z,9.98
2023-04-18T22:28:04.878Z,7.00
2023-04-18T22:33:06.488Z,8.82
2023-04-18T22:38:08.165Z,8.55
2023-04-18T22:43:09.724Z,7.88
2023-04-18T22:48:11.406Z,7.18
2023-04-18T22:53:13.464Z,6.63
2023-04-18T22:58:15.101Z,5.13
2023-04-18T23:03:16.857Z,6.38
2023-04-18T23:08:18.474Z,6.82
2023-04-18T23:13:20.131Z,6.57
2023-04-18T23:18:21.675Z,6.63
2023-04-18T23:23:23.248Z,8.65
2023-04-18T23:28:24.900Z,7.15
2023-04-18T23:33:26.441Z,9.55
2023-04-18T23:38:28.066Z,7.35
2023-04-18T23:43:29.662Z,6.78
2023-04-18T23:48:31.251Z,9.10
2023-04-18T23:53:32.904Z,8.35
2023-04-18T23:58:34.500Z,6.40
